createdAt,value
2023-01-23T00:01:22.904Z,2.70
2023-01-23T00:03:50.503Z,2.70
2023-01-23T00:06:18.024Z,2.70
2023-01-23T00:08:45.600Z,2.90
2023-01-23T00:11:13.144Z,2.80
2023-01-23T00:13:40.666Z,3.10
2023-01-23T00:16:08.294Z,3.00
2023-01-23T00:18:35.751Z,3.00
2023-01-23T00:21:05.963Z,2.90
2023-01-23T00:23:34.282Z,2.80
2023-01-23T00:26:07.756Z,2.80
2023-01-23T00:28:35.308Z,2.80
2023-01-23T00:31:03.955Z,2.70
2023-01-23T00:33:31.187Z,2.70
2023-01-23T00:35:58.717Z,2.70
2023-01-23T00:38:26.304Z,2.60
2023-01-23T00:40:53.843Z,2.70
2023-01-23T00:43:21.397Z,2.60
2023-01-23T00:45:48.942Z,2.70
2023-01-23T00:48:16.469Z,2.60
2023-01-23T00:50:44.042Z,2.60
2023-01-23T00:53:11.566Z,2.60
2023-01-23T00:55:39.116Z,2.70
2023-01-23T00:58:06.642Z,2.90
2023-01-23T01:00:34.190Z,2.90
2023-01-23T01:03:01.776Z,2.90
2023-01-23T01:05:30.026Z,2.80
2023-01-23T01:07:58.519Z,2.70
2023-01-23T01:10:26.091Z,2.70
2023-01-23T01:12:53.626Z,2.70
2023-01-23T01:15:21.947Z,2.70
2023-01-23T01:17:49.475Z,2.60
2023-01-23T01:20:17.110Z,2.60
2023-01-23T01:22:45.333Z,2.60
2023-01-23T01:25:12.852Z,2.60
2023-01-23T01:27:40.388Z,2.60
2023-01-23T01:30:08.890Z,2.50
2023-01-23T01:32:37.181Z,2.50
2023-01-23T01:35:04.718Z,2.50
2023-01-23T01:37:35.999Z,2.50
2023-01-23T01:40:03.534Z,2.50
2023-01-23T01:42:31.055Z,2.50
2023-01-23T01:44:58.621Z,2.50
2023-01-23T01:47:26.153Z,2.50
2023-01-23T01:49:53.710Z,2.70
2023-01-23T01:52:21.277Z,2.80
2023-01-23T01:54:48.790Z,2.80
2023-01-23T01:57:19.382Z,2.80
2023-01-23T01:59:46.923Z,2.80
2023-01-23T02:02:19.972Z,2.70
2023-01-23T02:04:50.481Z,2.90
2023-01-23T02:07:18.797Z,3.10
2023-01-23T02:09:46.322Z,3.10
2023-01-23T02:12:14.615Z,2.90
2023-01-23T02:14:42.183Z,2.90
2023-01-23T02:17:09.715Z,2.90
2023-01-23T02:20:11.548Z,2.80
2023-01-23T02:22:42.129Z,2.80
2023-01-23T02:25:15.583Z,2.70
2023-01-23T02:27:43.156Z,2.90
2023-01-23T02:30:11.556Z,2.80
2023-01-23T02:32:39.093Z,2.80
2023-01-23T02:35:07.916Z,2.70
2023-01-23T02:37:35.444Z,2.70
2023-01-23T02:40:03.763Z,2.70
2023-01-23T02:42:31.293Z,2.70
2023-01-23T02:44:58.824Z,2.70
2023-01-23T02:47:27.148Z,2.70
2023-01-23T02:49:54.704Z,2.60
2023-01-23T02:52:22.255Z,2.60
2023-01-23T02:54:49.799Z,2.60
2023-01-23T02:57:17.363Z,2.60
2023-01-23T03:00:03.177Z,2.60
2023-01-23T03:02:30.883Z,2.60
2023-01-23T03:04:58.352Z,2.60
2023-01-23T03:07:26.643Z,2.60
2023-01-23T03:09:54.189Z,2.60
2023-01-23T03:12:22.481Z,2.60
2023-01-23T03:14:50.042Z,2.60
2023-01-23T03:17:18.363Z,2.60
2023-01-23T03:19:45.919Z,2.60
2023-01-23T03:22:13.459Z,2.60
2023-01-23T03:24:41.002Z,2.60
2023-01-23T03:27:08.557Z,2.50
2023-01-23T03:29:54.891Z,2.80
2023-01-23T03:32:22.432Z,2.80
2023-01-23T03:34:49.988Z,2.80
2023-01-23T03:37:17.586Z,2.70
2023-01-23T03:40:03.082Z,2.90
2023-01-23T03:42:30.653Z,2.90
2023-01-23T03:44:58.959Z,2.70
2023-01-23T03:47:26.531Z,2.70
2023-01-23T03:49:54.815Z,2.80
2023-01-23T03:52:22.336Z,2.80
2023-01-23T03:54:50.630Z,2.70
2023-01-23T03:57:18.166Z,2.70
2023-01-23T03:59:46.475Z,2.60
2023-01-23T04:02:13.992Z,2.60
2023-01-23T04:04:42.942Z,2.50
2023-01-23T04:07:10.448Z,2.50
2023-01-23T04:09:38.736Z,2.50
2023-01-23T04:12:07.065Z,2.50
2023-01-23T04:14:34.572Z,2.50
2023-01-23T04:17:02.099Z,2.50
2023-01-23T04:19:29.654Z,2.50
2023-01-23T04:21:57.176Z,2.50
2023-01-23T04:24:24.700Z,2.50
2023-01-23T04:26:53.007Z,2.60
2023-01-23T04:29:20.606Z,2.70
2023-01-23T04:31:48.226Z,2.60
2023-01-23T04:34:15.697Z,2.60
2023-01-23T04:36:43.232Z,2.50
2023-01-23T04:39:10.767Z,2.50
2023-01-23T04:41:39.089Z,2.50
2023-01-23T04:44:21.813Z,2.40
2023-01-23T04:46:49.331Z,2.40
2023-01-23T04:49:16.860Z,2.40
2023-01-23T04:51:44.383Z,2.40
2023-01-23T04:54:11.956Z,2.40
2023-01-23T04:56:39.478Z,2.60
2023-01-23T04:59:06.993Z,2.60
2023-01-23T05:01:34.602Z,2.50
2023-01-23T05:04:02.858Z,2.50
2023-01-23T05:06:30.455Z,2.50
2023-01-23T05:08:58.027Z,2.50
2023-01-23T05:11:25.573Z,2.50
2023-01-23T05:13:53.094Z,2.50
2023-01-23T05:16:20.645Z,2.50
2023-01-23T05:18:48.944Z,2.50
2023-01-23T05:21:16.482Z,2.40
2023-01-23T05:23:44.813Z,2.50
2023-01-23T05:26:12.351Z,2.40
2023-01-23T05:28:39.894Z,2.50
2023-01-23T05:31:07.520Z,2.40
2023-01-23T05:33:34.973Z,2.50
2023-01-23T05:36:03.263Z,2.40
2023-01-23T05:38:31.618Z,2.40
2023-01-23T05:40:59.126Z,2.40
2023-01-23T05:43:26.666Z,2.40
2023-01-23T05:45:55.008Z,2.40
2023-01-23T05:48:22.546Z,2.40
2023-01-23T05:50:50.128Z,2.40
2023-01-23T05:53:17.664Z,2.60
2023-01-23T05:55:45.192Z,2.60
2023-01-23T05:58:15.701Z,2.50
2023-01-23T06:00:41.954Z,2.50
2023-01-23T06:03:09.499Z,2.40
2023-01-23T06:05:37.775Z,2.40
2023-01-23T06:08:05.668Z,2.40
2023-01-23T06:10:33.193Z,2.40
2023-01-23T06:13:01.507Z,2.40
2023-01-23T06:15:29.114Z,2.40
2023-01-23T06:17:56.616Z,2.40
2023-01-23T06:20:24.129Z,2.40
2023-01-23T06:22:52.463Z,2.40
2023-01-23T06:25:19.976Z,2.40
2023-01-23T06:27:48.288Z,2.40
2023-01-23T06:30:15.888Z,2.40
2023-01-23T06:32:43.385Z,2.40
2023-01-23T06:35:11.703Z,2.40
2023-01-23T06:37:39.291Z,2.40
2023-01-23T06:40:07.028Z,2.40
2023-01-23T06:42:34.531Z,2.40
2023-01-23T06:45:02.885Z,2.30
2023-01-23T06:47:30.400Z,2.30
2023-01-23T06:49:57.943Z,2.30
2023-01-23T06:52:25.545Z,2.30
2023-01-23T06:54:53.043Z,2.30
2023-01-23T06:57:21.367Z,2.30
2023-01-23T06:59:48.948Z,2.30
2023-01-23T07:02:16.445Z,2.30
2023-01-23T07:04:43.991Z,2.40
2023-01-23T07:07:11.547Z,2.40
2023-01-23T07:09:39.841Z,2.60
2023-01-23T07:12:07.371Z,2.60
2023-01-23T07:14:34.950Z,2.60
2023-01-23T07:17:03.270Z,2.70
2023-01-23T07:19:30.807Z,2.70
2023-01-23T07:21:58.358Z,2.70
2023-01-23T07:24:25.890Z,2.70
2023-01-23T07:26:54.190Z,2.60
2023-01-23T07:29:21.754Z,2.60
2023-01-23T07:31:49.304Z,2.50
2023-01-23T07:34:16.799Z,2.50
2023-01-23T07:36:44.400Z,2.50
2023-01-23T07:39:11.915Z,2.50
2023-01-23T07:41:41.466Z,2.50
2023-01-23T07:44:07.042Z,2.40
2023-01-23T07:46:34.605Z,2.40
2023-01-23T07:49:02.104Z,2.40
2023-01-23T07:51:30.443Z,2.40
2023-01-23T07:53:57.988Z,2.40
2023-01-23T07:56:25.535Z,2.40
2023-01-23T07:58:53.969Z,2.50
2023-01-23T08:01:20.690Z,2.50
2023-01-23T08:03:48.198Z,2.50
2023-01-23T08:06:15.742Z,2.50
2023-01-23T08:08:44.025Z,2.70
2023-01-23T08:11:11.551Z,2.70
2023-01-23T08:13:40.078Z,2.70
2023-01-23T08:16:07.634Z,2.70
2023-01-23T08:18:35.131Z,2.70
2023-01-23T08:21:02.747Z,2.70
2023-01-23T08:23:32.920Z,2.70
2023-01-23T08:26:00.410Z,2.70
2023-01-23T08:28:28.745Z,2.70
2023-01-23T08:30:56.322Z,2.70
2023-01-23T08:33:23.846Z,2.70
2023-01-23T08:35:51.431Z,2.70
2023-01-23T08:38:21.534Z,2.70
2023-01-23T08:40:49.058Z,2.80
2023-01-23T08:43:16.623Z,2.80
2023-01-23T08:45:50.137Z,2.80
2023-01-23T08:48:17.617Z,2.80
2023-01-23T08:50:45.186Z,2.80
2023-01-23T08:53:12.712Z,3.00
2023-01-23T08:55:40.245Z,3.30
2023-01-23T08:58:08.748Z,3.20
2023-01-23T09:00:36.267Z,3.10
2023-01-23T09:03:04.559Z,2.90
2023-01-23T09:05:32.133Z,2.90
2023-01-23T09:07:59.655Z,2.80
2023-01-23T09:10:27.181Z,2.80
2023-01-23T09:12:54.760Z,2.80
2023-01-23T09:15:22.323Z,2.80
2023-01-23T09:17:49.889Z,2.80
2023-01-23T09:20:18.278Z,3.00
2023-01-23T09:22:45.623Z,3.20
2023-01-23T09:25:13.146Z,3.20
2023-01-23T09:27:40.729Z,3.10
2023-01-23T09:30:09.692Z,3.10
2023-01-23T09:32:37.221Z,3.10
2023-01-23T09:35:04.851Z,3.30
2023-01-23T09:37:32.388Z,3.20
2023-01-23T09:39:59.897Z,3.20
2023-01-23T09:42:27.461Z,3.10
2023-01-23T09:44:54.997Z,3.10
2023-01-23T09:47:22.520Z,3.10
2023-01-23T09:50:08.532Z,3.00
2023-01-23T09:52:38.457Z,3.10
2023-01-23T09:55:14.649Z,3.10
2023-01-23T09:57:50.837Z,3.00
2023-01-23T10:00:27.367Z,3.10
2023-01-23T10:02:55.652Z,3.10
2023-01-23T10:05:23.190Z,3.10
2023-01-23T10:08:10.082Z,3.10
2023-01-23T10:10:58.212Z,3.10
2023-01-23T10:13:46.748Z,3.10
2023-01-23T10:16:48.553Z,3.10
2023-01-23T10:19:36.519Z,3.10
2023-01-23T10:22:34.884Z,3.10
2023-01-23T10:25:12.316Z,3.00
2023-01-23T10:27:39.856Z,3.10
2023-01-23T10:30:28.989Z,3.10
2023-01-23T10:32:56.497Z,3.10
2023-01-23T10:35:32.877Z,3.10
2023-01-23T10:38:21.253Z,3.20
2023-01-23T10:41:06.989Z,3.20
2023-01-23T10:43:34.546Z,3.20
2023-01-23T10:46:02.114Z,3.20
2023-01-23T10:48:33.379Z,3.20
2023-01-23T10:51:01.053Z,3.20
2023-01-23T10:53:28.463Z,3.30
2023-01-23T10:55:55.998Z,3.30
2023-01-23T10:58:32.638Z,3.50
2023-01-23T11:01:00.238Z,3.50
2023-01-23T11:03:27.720Z,3.50
2023-01-23T11:05:55.276Z,3.50
2023-01-23T11:08:25.517Z,3.50
2023-01-23T11:10:53.000Z,3.60
2023-01-23T11:13:29.576Z,3.60
2023-01-23T11:15:57.127Z,3.60
2023-01-23T11:18:33.131Z,3.60
2023-01-23T11:21:00.730Z,3.60
2023-01-23T11:23:28.260Z,3.60
2023-01-23T11:25:55.786Z,3.60
2023-01-23T11:28:29.598Z,3.70
2023-01-23T11:31:13.728Z,3.70
2023-01-23T11:33:42.560Z,3.70
2023-01-23T11:36:18.868Z,3.80
2023-01-23T11:38:53.069Z,3.80
2023-01-23T11:41:19.427Z,3.80
2023-01-23T11:43:47.720Z,3.70
2023-01-23T11:46:34.697Z,3.70
2023-01-23T11:49:20.524Z,3.70
2023-01-23T11:51:54.459Z,3.70
2023-01-23T11:54:40.614Z,3.70
2023-01-23T11:57:09.467Z,3.60
2023-01-23T12:00:13.627Z,3.70
2023-01-23T12:03:15.322Z,3.90
2023-01-23T12:06:13.846Z,3.90
2023-01-23T12:08:52.940Z,3.80
2023-01-23T12:11:20.502Z,3.80
2023-01-23T12:13:50.442Z,3.70
2023-01-23T12:16:20.979Z,3.70
2023-01-23T12:19:15.748Z,3.60
2023-01-23T12:21:48.541Z,3.80
2023-01-23T12:24:21.412Z,3.80
2023-01-23T12:26:54.974Z,3.70
2023-01-23T12:29:28.748Z,3.80
2023-01-23T12:32:02.140Z,3.80
2023-01-23T12:34:36.035Z,3.70
2023-01-23T12:37:29.558Z,3.60
2023-01-23T12:39:45.283Z,3.60
2023-01-23T12:42:12.828Z,3.70
2023-01-23T12:44:52.470Z,3.80
2023-01-23T12:47:26.067Z,3.70
2023-01-23T12:50:00.985Z,3.70
2023-01-23T12:52:40.419Z,3.70
2023-01-23T12:55:13.950Z,3.70
2023-01-23T12:58:10.024Z,3.70
2023-01-23T13:00:21.309Z,3.70
2023-01-23T13:02:54.352Z,3.80
2023-01-23T13:05:24.805Z,4.10
2023-01-23T13:08:01.419Z,4.00
2023-01-23T13:10:59.167Z,3.90
2023-01-23T13:13:26.704Z,3.80
2023-01-23T13:15:55.007Z,3.70
2023-01-23T13:18:25.541Z,3.70
2023-01-23T13:21:17.115Z,3.70
2023-01-23T13:23:44.623Z,3.60
2023-01-23T13:26:20.479Z,3.60
2023-01-23T13:28:50.645Z,3.60
2023-01-23T13:31:39.651Z,3.60
2023-01-23T13:34:16.339Z,3.60
2023-01-23T13:36:43.684Z,3.80
2023-01-23T13:39:16.919Z,4.10
2023-01-23T13:41:50.436Z,4.00
2023-01-23T13:44:22.996Z,4.10
2023-01-23T13:46:59.745Z,4.00
2023-01-23T13:49:54.406Z,3.90
2023-01-23T13:52:40.225Z,3.80
2023-01-23T13:55:35.567Z,3.60
2023-01-23T13:58:03.273Z,3.60
2023-01-23T14:00:30.695Z,3.50
2023-01-23T14:03:28.889Z,3.60
2023-01-23T14:06:11.123Z,3.60
2023-01-23T14:08:48.031Z,3.60
2023-01-23T14:11:18.419Z,3.50
2023-01-23T14:13:51.395Z,3.40
2023-01-23T14:16:24.897Z,3.60
2023-01-23T14:18:55.109Z,3.50
2023-01-23T14:21:30.329Z,3.50
2023-01-23T14:23:59.117Z,3.40
2023-01-23T14:26:29.136Z,3.40
2023-01-23T14:28:57.455Z,3.20
2023-01-23T14:31:25.140Z,3.30
2023-01-23T14:33:54.254Z,3.20
2023-01-23T14:36:20.051Z,3.20
2023-01-23T14:38:47.645Z,3.20
2023-01-23T14:41:15.434Z,3.20
2023-01-23T14:43:42.698Z,3.20
2023-01-23T14:46:19.355Z,3.10
2023-01-23T14:48:50.061Z,3.10
2023-01-23T14:51:23.135Z,3.10
2023-01-23T14:54:10.191Z,3.10
2023-01-23T14:56:32.939Z,3.10
2023-01-23T14:59:00.494Z,3.10
2023-01-23T15:01:28.899Z,3.00
2023-01-23T15:04:08.972Z,3.00
2023-01-23T15:06:36.557Z,3.00
2023-01-23T15:09:06.969Z,3.00
2023-01-23T15:11:34.484Z,3.00
2023-01-23T15:14:02.051Z,3.00
2023-01-23T15:16:32.330Z,3.00
2023-01-23T15:19:02.256Z,3.00
2023-01-23T15:21:33.471Z,3.00
2023-01-23T15:24:01.015Z,3.00
2023-01-23T15:26:33.999Z,3.00
2023-01-23T15:29:01.599Z,3.00
2023-01-23T15:31:29.197Z,3.00
2023-01-23T15:33:56.616Z,3.00
2023-01-23T15:36:30.988Z,2.90
2023-01-23T15:38:58.515Z,2.90
2023-01-23T15:41:37.848Z,2.90
2023-01-23T15:44:06.149Z,2.90
2023-01-23T15:46:33.785Z,2.90
2023-01-23T15:49:01.285Z,2.90
2023-01-23T15:51:28.825Z,2.90
2023-01-23T15:53:56.385Z,2.90
2023-01-23T15:56:26.863Z,2.90
2023-01-23T15:58:54.407Z,2.90
2023-01-23T16:01:21.973Z,2.90
2023-01-23T16:03:49.529Z,2.90
2023-01-23T16:06:20.074Z,3.10
2023-01-23T16:08:54.935Z,3.30
2023-01-23T16:11:15.133Z,3.50
2023-01-23T16:13:42.680Z,3.50
2023-01-23T16:16:16.392Z,3.30
2023-01-23T16:18:44.723Z,3.10
2023-01-23T16:21:12.231Z,3.10
2023-01-23T16:23:47.274Z,3.10
2023-01-23T16:26:07.348Z,3.00
2023-01-23T16:28:34.873Z,3.00
2023-01-23T16:31:03.172Z,3.00
2023-01-23T16:33:30.753Z,2.90
2023-01-23T16:35:58.277Z,2.90
2023-01-23T16:38:26.574Z,2.90
2023-01-23T16:40:54.164Z,2.90
2023-01-23T16:43:21.719Z,2.90
2023-01-23T16:45:49.254Z,2.90
2023-01-23T16:48:26.288Z,2.90
2023-01-23T16:50:44.363Z,2.90
2023-01-23T16:53:23.680Z,2.90
2023-01-23T16:55:51.973Z,2.90
2023-01-23T16:58:19.502Z,2.90
2023-01-23T17:00:48.456Z,2.90
2023-01-23T17:03:21.816Z,2.90
2023-01-23T17:05:49.368Z,2.90
2023-01-23T17:08:17.734Z,2.90
2023-01-23T17:10:46.737Z,2.90
2023-01-23T17:13:12.788Z,2.90
2023-01-23T17:15:40.363Z,2.90
2023-01-23T17:18:07.891Z,3.10
2023-01-23T17:20:35.433Z,3.00
2023-01-23T17:23:03.799Z,3.00
2023-01-23T17:25:32.272Z,3.00
2023-01-23T17:28:12.492Z,3.00
2023-01-23T17:30:28.275Z,3.00
2023-01-23T17:32:55.810Z,3.00
2023-01-23T17:35:23.355Z,2.90
2023-01-23T17:37:50.960Z,3.00
2023-01-23T17:40:18.493Z,2.90
2023-01-23T17:42:46.024Z,2.90
2023-01-23T17:45:14.365Z,3.00
2023-01-23T17:47:45.002Z,3.00
2023-01-23T17:50:18.460Z,3.00
2023-01-23T17:52:46.425Z,3.00
2023-01-23T17:55:16.842Z,3.20
2023-01-23T17:57:44.401Z,3.20
2023-01-23T18:00:12.840Z,3.10
2023-01-23T18:02:40.404Z,3.10
2023-01-23T18:05:07.965Z,3.10
2023-01-23T18:07:42.601Z,3.20
2023-01-23T18:10:05.791Z,3.20
2023-01-23T18:12:36.081Z,3.20
2023-01-23T18:15:03.615Z,3.20
2023-01-23T18:17:37.166Z,3.10
2023-01-23T18:20:04.789Z,3.30
2023-01-23T18:22:32.717Z,3.30
2023-01-23T18:25:00.313Z,3.20
2023-01-23T18:27:27.859Z,3.20
2023-01-23T18:30:16.692Z,3.10
2023-01-23T18:32:56.274Z,3.10
2023-01-23T18:35:29.441Z,3.00
2023-01-23T18:38:15.186Z,3.00
2023-01-23T18:41:04.313Z,3.10
2023-01-23T18:43:34.768Z,3.10
2023-01-23T18:46:03.072Z,3.00
2023-01-23T18:48:31.495Z,3.00
2023-01-23T18:51:02.032Z,2.90
2023-01-23T18:54:07.627Z,2.90
2023-01-23T18:56:46.944Z,2.90
2023-01-23T18:59:32.940Z,2.90
2023-01-23T19:02:00.506Z,2.90
2023-01-23T19:04:30.543Z,2.80
2023-01-23T19:06:58.086Z,2.90
2023-01-23T19:09:25.631Z,2.90
2023-01-23T19:12:02.112Z,2.90
2023-01-23T19:14:41.732Z,2.90
2023-01-23T19:17:12.033Z,3.00
2023-01-23T19:19:42.228Z,3.00
2023-01-23T19:22:10.709Z,3.00
2023-01-23T19:24:38.322Z,2.90
2023-01-23T19:27:05.858Z,2.90
2023-01-23T19:29:33.488Z,2.90
2023-01-23T19:32:05.863Z,2.90
2023-01-23T19:34:28.582Z,2.80
2023-01-23T19:36:56.427Z,3.00
2023-01-23T19:39:23.959Z,3.20
2023-01-23T19:41:51.496Z,3.20
2023-01-23T19:44:19.061Z,3.10
2023-01-23T19:46:46.659Z,3.00
2023-01-23T19:49:14.118Z,3.10
2023-01-23T19:51:41.703Z,3.30
2023-01-23T19:54:09.252Z,3.30
2023-01-23T19:56:36.784Z,3.10
2023-01-23T19:59:05.102Z,2.90
2023-01-23T20:01:47.701Z,2.90
2023-01-23T20:04:15.217Z,2.80
2023-01-23T20:06:42.741Z,2.70
2023-01-23T20:09:10.275Z,2.70
2023-01-23T20:11:37.843Z,2.70
2023-01-23T20:14:05.368Z,2.60
2023-01-23T20:16:33.710Z,2.60
2023-01-23T20:19:01.255Z,2.60
2023-01-23T20:24:07.274Z,2.60
2023-01-23T20:26:33.183Z,2.50
2023-01-23T20:29:01.522Z,2.50
2023-01-23T20:31:29.988Z,2.50
2023-01-23T20:33:58.242Z,2.50
2023-01-23T20:36:25.779Z,2.50
2023-01-23T20:38:54.109Z,2.50
2023-01-23T20:41:21.658Z,2.50
2023-01-23T20:43:49.175Z,2.50
2023-01-23T20:46:16.778Z,2.50
2023-01-23T20:48:45.062Z,2.50
2023-01-23T20:51:12.578Z,2.50
2023-01-23T20:53:41.201Z,2.50
2023-01-23T20:56:17.397Z,2.50
2023-01-23T20:59:03.118Z,2.50
2023-01-23T21:01:31.440Z,2.60
2023-01-23T21:03:58.950Z,2.50
2023-01-23T21:06:27.279Z,2.60
2023-01-23T21:08:56.877Z,2.50
2023-01-23T21:11:22.374Z,2.50
2023-01-23T21:13:52.912Z,2.50
2023-01-23T21:16:20.437Z,2.50
2023-01-23T21:18:47.971Z,2.50
2023-01-23T21:21:15.538Z,2.50
2023-01-23T21:23:43.916Z,2.50
2023-01-23T21:26:12.202Z,2.50
2023-01-23T21:28:40.561Z,2.40
2023-01-23T21:31:08.159Z,2.40
2023-01-23T21:33:35.627Z,2.50
2023-01-23T21:36:03.221Z,2.40
2023-01-23T21:38:30.770Z,2.40
2023-01-23T21:40:58.298Z,2.40
2023-01-23T21:43:25.884Z,2.40
2023-01-23T21:45:53.418Z,2.40
2023-01-23T21:48:20.951Z,2.40
2023-01-23T21:50:48.528Z,2.40
2023-01-23T21:53:16.090Z,2.40
2023-01-23T21:55:43.609Z,2.40
2023-01-23T21:58:12.228Z,2.50
2023-01-23T22:00:57.941Z,2.40
2023-01-23T22:03:25.502Z,2.50
2023-01-23T22:05:53.043Z,2.40
2023-01-23T22:08:20.562Z,2.40
2023-01-23T22:10:48.923Z,2.50
2023-01-23T22:13:16.460Z,2.40
2023-01-23T22:15:44.019Z,2.40
2023-01-23T22:18:11.566Z,2.50
2023-01-23T22:20:39.092Z,2.40
2023-01-23T22:23:06.637Z,2.40
2023-01-23T22:25:34.990Z,2.70
2023-01-23T22:28:02.510Z,2.70
2023-01-23T22:30:30.026Z,2.70
2023-01-23T22:32:58.386Z,2.80
2023-01-23T22:35:25.917Z,2.80
2023-01-23T22:37:53.444Z,2.70
2023-01-23T22:40:21.021Z,2.90
2023-01-23T22:42:48.545Z,3.10
2023-01-23T22:45:16.847Z,2.90
2023-01-23T22:47:44.405Z,2.80
2023-01-23T22:50:12.129Z,2.80
2023-01-23T22:52:39.662Z,2.70
2023-01-23T22:55:07.278Z,2.70
2023-01-23T22:57:34.809Z,2.70
2023-01-23T23:00:03.205Z,2.90
2023-01-23T23:02:30.737Z,2.80
2023-01-23T23:04:58.270Z,2.80
2023-01-23T23:07:25.802Z,3.00
2023-01-23T23:09:53.372Z,2.90
2023-01-23T23:12:20.897Z,2.90
2023-01-23T23:14:49.214Z,3.00
2023-01-23T23:17:16.831Z,3.00
2023-01-23T23:19:44.316Z,2.90
2023-01-23T23:22:11.850Z,2.80
2023-01-23T23:24:40.457Z,2.90
2023-01-23T23:27:07.967Z,2.90
2023-01-23T23:29:35.502Z,2.90
2023-01-23T23:32:03.176Z,2.80
2023-01-23T23:34:30.604Z,2.70
2023-01-23T23:36:58.153Z,2.90
2023-01-23T23:39:25.698Z,2.90
2023-01-23T23:41:53.235Z,2.80
2023-01-23T23:44:21.541Z,2.80
2023-01-23T23:46:49.117Z,2.80
2023-01-23T23:49:16.654Z,2.70
2023-01-23T23:51:44.184Z,2.70
2023-01-23T23:54:11.763Z,2.70
2023-01-23T23:56:40.055Z,2.70
2023-01-23T23:59:07.595Z,2.70
